LFOP 211130Z AUTO 34004KT 310V020 9999 OVC041 04/02 Q1038 NOSIG

ElémentsDécodage
LFOP Station météo située sur l'aérodrome de ROUEN Vallée-de-Seine
211130Z émis le 21 du mois à 11h30 UTC
AUTO Bulletin édité par un automate
34004KT vent du 340°, 04 noeuds
310V020 vent de direction variable entre 310° et 020°
9999 visibilité horizontale supérieure à 10 Km
OVC041 couverture nuageuse totale (8/8) à 4100 pieds
04/02 température 04°C, point de rosée 02°C
 soit une humidité relative de 87%
Q1038 la pression au niveau de la mer (QNH) est de 1038 hPa
NOSIG Pas de changement significatif prévu au cours des deux heures suivant l'heure de l'observation